Airfield :
LOGIN :

Register | Disclaimer

   EN    FR    IT 

 










Legend :    VFR   Marginal VFR   IFR   Intensive IFR   Very Intensive IFR
Visi :
Ceiling :
>= 8 km
>= 3000ft
5 to 8 km
1000 to 3000 ft
1500m to 5 km
500 to 1000 ft
800 to 1500m
200 to 500 ft
< 800m
< 200 ft
Symbols :   Thunderstorms  Fog  Heavy snow  Heavy precipitations  Wind > 20 kt
SIGMETs :     Misc.  Thunderstorms  Icing  Turbulence  Mountain Waves  Volcanic Ashes






- Airport Elevation : 405 ft
- IATA code : SUJ


LRSM - Satu Mare

CURRENT METAR :
  • 171200Z 15011KT CAVOK 20/07 Q1016

EXPIRED METARs :
  • 171130Z 16009KT CAVOK 19/07 Q1017
  • 171100Z 16012KT CAVOK 19/08 Q1017
  • 171030Z 15012KT CAVOK 19/07 Q1017
  • 171000Z 14008KT CAVOK 17/08 Q1018
  • 170930Z 13008KT 100V170 CAVOK 17/07 Q1018

TAF TAF LRSM
Valid from the 17 at 12:00 until the 17 at 21:00 UTC


171100Z 1712/1721 15012KT CAVOK



MET'MAP, your aeronautical weather chart ! - Copyright ORBIFLY December 2007 - Disclaimer

ORBIFLY MET'MAP TEAM :

Programming & Development : Alexandra Zaïnal
Concept & Development : Baudouin d'Aumeries
Co-Development & Prog : Marc-Olivier Méhu
Technical & hardware support : Manuel Goepfert

Contact : metmap@orbifly.com




SOURCES & CREDITS :

   NOAA